Fort Lauderdale (FLL/KFLL)

Information

Location
Fort Lauderdale, FL
Local Time
07:50 / 7:50 am
GMT Time
12:50 / 12:50 pm
Gates
Unassigned
No FAA reported delays
METAR KFLL 161153Z 10012KT 10SM SCT030 BKN065 BKN250 22/18 A3018 RMK AO2 SLP220 70001 T02220178 10233 20222 53006
TAF KFLL 161147Z 1612/1712 10013G18KT P6SM VCSH SCT025 SCT045 BKN060 FM161500 10015G21KT P6SM SCT025 BKN060 FM170100 10011KT P6SM SCT025 BKN060
  • No charts available